CCA1884 ZSPD-ZBAA
Flight info
| Callsign | CCA1884 |
|---|---|
| Flight time | N/A |
| Altitude | 36100 |
| Route | POMOK G330 PIMOL A593 DALIM W157 AVBOX |
| Aircraft | B77W/H-SDE1E2E3FGHIJ2J3J4J5M1RWXY/LB1D1 |
Departure
| Time | 2026-05-07 08:06 |
|---|---|
| Airport | Shanghai Pudong International Airport (ZSPD) |
Arrival
| Time | N/A |
|---|---|
| Airport | Beijing Capital International Airport (ZBAA) |
| Time | Latitude | Longitude | Altitude | Speed | Heading |
|---|---|---|---|---|---|
| 2026-05-07 07:33 | 31.14169 | 121.81194 | 27 ft | 0 kts | 253° |
| 2026-05-07 07:51 | 31.14172 | 121.81205 | 27 ft | 2 kts | 253° |
| 2026-05-07 07:51 | 31.14177 | 121.81222 | 27 ft | 2 kts | 253° |
| 2026-05-07 07:52 | 31.14181 | 121.81239 | 27 ft | 2 kts | 253° |
| 2026-05-07 07:52 | 31.14187 | 121.81255 | 27 ft | 2 kts | 234° |
| 2026-05-07 07:52 | 31.14197 | 121.81267 | 27 ft | 2 kts | 209° |
| 2026-05-07 07:52 | 31.14211 | 121.81273 | 27 ft | 2 kts | 187° |
| 2026-05-07 07:53 | 31.14226 | 121.81273 | 27 ft | 2 kts | 165° |
| 2026-05-07 07:53 | 31.14241 | 121.81267 | 27 ft | 2 kts | 156° |
| 2026-05-07 07:53 | 31.14254 | 121.81260 | 27 ft | 1 kts | 159° |
| 2026-05-07 07:53 | 31.14259 | 121.81258 | 27 ft | 0 kts | 161° |
| 2026-05-07 07:57 | 31.14245 | 121.81264 | 27 ft | 5 kts | 160° |
| 2026-05-07 07:58 | 31.14190 | 121.81286 | 27 ft | 11 kts | 162° |
| 2026-05-07 07:58 | 31.14114 | 121.81315 | 27 ft | 11 kts | 162° |
| 2026-05-07 07:58 | 31.14041 | 121.81342 | 27 ft | 10 kts | 162° |
| 2026-05-07 07:58 | 31.13971 | 121.81369 | 27 ft | 10 kts | 162° |
| 2026-05-07 07:59 | 31.13890 | 121.81400 | 27 ft | 13 kts | 162° |
| 2026-05-07 07:59 | 31.13805 | 121.81432 | 27 ft | 12 kts | 162° |
| 2026-05-07 07:59 | 31.13723 | 121.81462 | 27 ft | 12 kts | 162° |
| 2026-05-07 07:59 | 31.13645 | 121.81491 | 27 ft | 11 kts | 162° |
| 2026-05-07 08:00 | 31.13571 | 121.81520 | 27 ft | 11 kts | 162° |
| 2026-05-07 08:00 | 31.13498 | 121.81548 | 27 ft | 10 kts | 162° |
| 2026-05-07 08:00 | 31.13430 | 121.81574 | 27 ft | 10 kts | 162° |
| 2026-05-07 08:00 | 31.13363 | 121.81599 | 27 ft | 9 kts | 161° |
| 2026-05-07 08:01 | 31.13298 | 121.81624 | 27 ft | 9 kts | 162° |
| 2026-05-07 08:01 | 31.13230 | 121.81649 | 27 ft | 11 kts | 162° |
| 2026-05-07 08:01 | 31.13154 | 121.81678 | 27 ft | 11 kts | 162° |
| 2026-05-07 08:01 | 31.13106 | 121.81651 | 27 ft | 7 kts | 236° |
| 2026-05-07 08:02 | 31.13069 | 121.81544 | 27 ft | 21 kts | 251° |
| 2026-05-07 08:02 | 31.13013 | 121.81341 | 27 ft | 27 kts | 252° |
| 2026-05-07 08:02 | 31.12953 | 121.81124 | 27 ft | 27 kts | 252° |
| 2026-05-07 08:02 | 31.12895 | 121.80916 | 27 ft | 26 kts | 252° |
| 2026-05-07 08:03 | 31.12839 | 121.80716 | 27 ft | 24 kts | 252° |
| 2026-05-07 08:03 | 31.12789 | 121.80531 | 27 ft | 23 kts | 252° |
| 2026-05-07 08:03 | 31.12738 | 121.80356 | 27 ft | 21 kts | 251° |
| 2026-05-07 08:03 | 31.12711 | 121.80244 | 27 ft | 10 kts | 280° |
| 2026-05-07 08:04 | 31.12762 | 121.80197 | 27 ft | 7 kts | 318° |
| 2026-05-07 08:04 | 31.12771 | 121.80145 | 27 ft | 6 kts | 262° |
| 2026-05-07 08:04 | 31.12758 | 121.80091 | 27 ft | 7 kts | 252° |
| 2026-05-07 08:04 | 31.12743 | 121.80037 | 27 ft | 7 kts | 252° |
| 2026-05-07 08:05 | 31.12727 | 121.79979 | 27 ft | 8 kts | 252° |
| 2026-05-07 08:05 | 31.12717 | 121.79913 | 27 ft | 6 kts | 299° |
| 2026-05-07 08:05 | 31.12758 | 121.79876 | 27 ft | 10 kts | 336° |
| 2026-05-07 08:05 | 31.12936 | 121.79805 | 27 ft | 58 kts | 342° |
| 2026-05-07 08:06 | 31.13559 | 121.79571 | 27 ft | 129 kts | 342° |
| 2026-05-07 08:06 | 31.14595 | 121.79181 | 183 ft | 172 kts | 344° |
| 2026-05-07 08:06 | 31.15741 | 121.78752 | 827 ft | 180 kts | 343° |
| 2026-05-07 08:06 | 31.16904 | 121.78330 | 1858 ft | 173 kts | 342° |
| 2026-05-07 08:07 | 31.18024 | 121.77884 | 2631 ft | 180 kts | 338° |
| 2026-05-07 08:07 | 31.19246 | 121.77336 | 3259 ft | 197 kts | 339° |
| 2026-05-07 08:07 | 31.20520 | 121.76811 | 3902 ft | 212 kts | 340° |
| 2026-05-07 08:07 | 31.21956 | 121.76229 | 4675 ft | 227 kts | 340° |
| 2026-05-07 08:08 | 31.23483 | 121.75610 | 5491 ft | 242 kts | 340° |
| 2026-05-07 08:08 | 31.25129 | 121.74940 | 6262 ft | 258 kts | 339° |
| 2026-05-07 08:08 | 31.26856 | 121.74238 | 7152 ft | 269 kts | 339° |
| 2026-05-07 08:08 | 31.28617 | 121.73522 | 8204 ft | 274 kts | 339° |
| 2026-05-07 08:09 | 31.30448 | 121.72777 | 9203 ft | 280 kts | 338° |
| 2026-05-07 08:09 | 31.32277 | 121.72033 | 10221 ft | 283 kts | 337° |
| 2026-05-07 08:09 | 31.34189 | 121.71252 | 10948 ft | 300 kts | 337° |
| 2026-05-07 08:09 | 31.36224 | 121.70438 | 11602 ft | 318 kts | 338° |
| 2026-05-07 08:10 | 31.38398 | 121.69614 | 12311 ft | 335 kts | 339° |
| 2026-05-07 08:10 | 31.40662 | 121.68756 | 13021 ft | 352 kts | 338° |
| 2026-05-07 08:10 | 31.43068 | 121.67838 | 13687 ft | 368 kts | 338° |
| 2026-05-07 08:10 | 31.45555 | 121.66888 | 14398 ft | 384 kts | 338° |
| 2026-05-07 08:11 | 31.48156 | 121.65898 | 15061 ft | 400 kts | 338° |
| 2026-05-07 08:11 | 31.50834 | 121.64882 | 15888 ft | 409 kts | 338° |
| 2026-05-07 08:11 | 31.53450 | 121.63653 | 16842 ft | 408 kts | 329° |
| 2026-05-07 08:11 | 31.55884 | 121.61897 | 17707 ft | 409 kts | 319° |
| 2026-05-07 08:12 | 31.58005 | 121.59719 | 18556 ft | 410 kts | 312° |
| 2026-05-07 08:12 | 31.60037 | 121.57330 | 19309 ft | 415 kts | 311° |
| 2026-05-07 08:12 | 31.62090 | 121.54894 | 19568 ft | 418 kts | 311° |